createdAt,value
2023-06-07T00:29:52.280Z,15.37
2023-06-07T00:49:52.235Z,15.37
2023-06-07T01:09:52.213Z,15.37
2023-06-07T01:49:52.167Z,15.36
2023-06-07T02:09:52.171Z,15.35
2023-06-07T02:29:52.171Z,15.35
2023-06-07T02:49:52.130Z,15.33
2023-06-07T03:09:52.150Z,15.32
2023-06-07T03:29:52.112Z,15.31
2023-06-07T03:49:52.112Z,15.3
2023-06-07T04:29:52.054Z,15.28
2023-06-07T04:49:52.032Z,15.27
2023-06-07T05:09:52.042Z,15.27
2023-06-07T05:49:52.052Z,15.26
2023-06-07T06:09:51.988Z,15.26
2023-06-07T06:29:51.961Z,15.24
2023-06-07T06:49:51.949Z,15.23
2023-06-07T07:09:51.923Z,15.21
2023-06-07T07:29:51.915Z,15.19
2023-06-07T07:49:51.899Z,15.18
2023-06-07T08:09:51.939Z,15.17
2023-06-07T08:29:51.868Z,15.17
2023-06-07T08:49:51.853Z,15.17
2023-06-07T09:09:51.836Z,15.16
2023-06-07T09:29:51.832Z,15.15
2023-06-07T09:49:51.851Z,15.14
2023-06-07T10:09:51.865Z,15.12
2023-06-07T10:29:51.768Z,15.1
2023-06-07T10:49:51.819Z,15.09
2023-06-07T11:09:51.766Z,15.08
2023-06-07T11:29:51.737Z,15.07
2023-06-07T11:49:51.777Z,15.07
2023-06-07T12:09:51.757Z,15.07
2023-06-07T12:29:51.685Z,15.07
2023-06-07T12:49:51.750Z,15.06
2023-06-07T13:09:51.712Z,15.06
2023-06-07T13:29:51.662Z,15.06
2023-06-07T13:49:51.621Z,15.06
2023-06-07T14:09:51.656Z,15.06
2023-06-07T14:29:51.592Z,15.06
2023-06-07T14:49:51.577Z,15.06
2023-06-07T15:09:51.566Z,15.06
2023-06-07T15:29:51.568Z,15.07
2023-06-07T15:49:51.573Z,15.07
2023-06-07T16:09:51.525Z,15.07
2023-06-07T16:29:51.543Z,15.08
2023-06-07T16:49:51.471Z,15.08
2023-06-07T17:29:51.453Z,15.12
2023-06-07T17:49:51.504Z,15.14
2023-06-07T18:09:51.527Z,15.15
2023-06-07T18:29:51.453Z,15.16
2023-06-07T18:49:51.435Z,15.16
2023-06-07T19:09:51.365Z,15.17
2023-06-07T19:29:51.434Z,15.17
2023-06-07T19:49:51.352Z,15.17
2023-06-07T20:09:51.329Z,15.18
2023-06-07T20:29:51.294Z,15.19
2023-06-07T20:49:51.306Z,15.2
2023-06-07T21:09:51.283Z,15.21
2023-06-07T21:29:51.281Z,15.22
2023-06-07T21:49:51.262Z,15.23
2023-06-07T22:09:50.699Z,15.24
2023-06-07T22:49:51.197Z,15.25
2023-06-07T23:09:51.177Z,15.25
2023-06-07T23:29:51.165Z,15.25
2023-06-07T23:49:51.146Z,15.25
